Startpagina
METAR-TAF:

METAR-TAF

Vliegvelden :

Djedda, Saoedi-Arabië

Internationale luchthaven Koning Abdoel Aziz

breedte: 21-42N, lengte: 039-11E, hoogte: 15 m

Actueel weer

Dit bericht is 16 minuten geleden gemaakt, om 20:00 UTC
Wind 4 kt uit het westnoordwesten
Temperatuur 26°C
Vochtigheid 74%
Druk 1007 hPa
Zicht 10 km of meer
Verspreide wolken op 4000 ft

METAR: OEJN 242000Z 29004KT 9999 SCT040 26/21 Q1007 NOSIG

Tijdstip: 23:16 (20:16 UTC)

Verwachting

Dit bericht is 3 uur en het 16 minuten geleden gemaakt, om 17:00 UTC
Verwachting geldig van 24 om 18 UTC tot 25 om 24 UTC
Wind 10 kt uit het noordoosten
Zicht: 7000 m
Weinig wolken op 4000 ft
Verspreide wolken op 10000 ft
Tijdelijke
van 24 om 18 UTC tot 25 om 06 UTC
Zicht: 4000 m
Verspreide wolken op 4000 ft
nevel, Heiigheid

TAF: OEJN 241700Z 2418/2524 04010KT 7000 FEW040 SCT100 TEMPO 2418/2506 4000 BR HZ SCT040

Waarnemingen en weersverwachtingen van meer dan 4000 vliegvelden (METAR en TAF).

De beschikbare stations zijn de gele en rode punten op de kaart.

Ga met uw muis naar het station om de naam te zien.

Klik dan om waarnemingen en weersverwachtingen te zien.

kaart wijzigen: klik op de groene knoppen met een zwart kruis om in te zoomen, op de groene knop met een streepje om uit te zoomen of op de groene pijlen voor aangrenzende kaarten.


METAR-TAF: